Time;durP1;ratioP1;P1;durP2;ratioP2;P2;SDS_P1;SDS_P2;PMS_P1;PMS_P2;Temp;Humidity;BMP_temperature;BMP_pressure;BME280_temperature;BME280_humidity;BME280_pressure;Samples;Min_cycle;Max_cycle;Signal;HPM_P1;HPM_P2
2023/02/18 00:02:12;;;;;;;3.27;0.90;;;;;;;7.34;66.83;101171.97;4981237;28;20220;-81
2023/02/18 00:04:38;;;;;;;4.67;0.90;;;;;;;7.35;67.34;101160.41;4987944;28;20735;-82
2023/02/18 00:07:05;;;;;;;5.37;0.93;;;;;;;7.35;66.58;101171.00;4987537;28;20647;-82
2023/02/18 00:09:31;;;;;;;3.40;1.73;;;;;;;7.35;66.64;101168.38;4986129;28;20429;-81
2023/02/18 00:11:58;;;;;;;4.97;0.77;;;;;;;7.36;67.39;101156.84;4984599;28;20298;-83
2023/02/18 00:14:26;;;;;;;5.23;0.90;;;;;;;7.35;67.60;101155.13;4988804;28;20219;-83
2023/02/18 00:16:52;;;;;;;5.00;1.20;;;;;;;7.36;67.34;101155.97;4987219;28;20215;-82
2023/02/18 00:19:22;;;;;;;2.70;0.80;;;;;;;7.37;66.84;101158.56;4983535;28;20230;-82
2023/02/18 00:21:48;;;;;;;5.00;1.60;;;;;;;7.37;67.52;101168.31;4994684;28;20628;-82
2023/02/18 00:24:16;;;;;;;3.40;0.90;;;;;;;7.35;67.75;101155.13;4987498;28;20231;-82
2023/02/18 00:26:42;;;;;;;4.90;1.00;;;;;;;7.36;67.03;101162.13;4992978;28;20555;-83
2023/02/18 00:29:09;;;;;;;4.50;0.97;;;;;;;7.37;67.23;101157.69;5000594;28;20219;-82
2023/02/18 00:31:37;;;;;;;4.23;1.07;;;;;;;7.37;67.20;101163.88;4992693;28;20199;-83
2023/02/18 00:34:05;;;;;;;3.93;0.90;;;;;;;7.36;67.64;101162.13;4987151;28;20207;-83
2023/02/18 00:36:32;;;;;;;2.70;0.67;;;;;;;7.35;67.32;101155.13;4991438;28;20208;-83
2023/02/18 00:39:00;;;;;;;7.20;1.03;;;;;;;7.32;67.47;101165.88;4992485;28;20224;-83
2023/02/18 00:41:28;;;;;;;4.40;0.97;;;;;;;7.32;67.64;101169.38;4995879;28;20211;-83
2023/02/18 00:43:56;;;;;;;6.90;0.93;;;;;;;7.33;67.85;101172.88;4991320;28;20210;-83
2023/02/18 00:46:23;;;;;;;4.30;0.87;;;;;;;7.31;67.67;101166.78;4990340;28;20219;-82
2023/02/18 00:48:51;;;;;;;6.20;1.20;;;;;;;7.30;67.64;101173.88;4985633;28;20203;-83
2023/02/18 00:51:18;;;;;;;8.40;2.20;;;;;;;7.29;67.69;101169.50;4988085;28;20204;-83
2023/02/18 00:53:44;;;;;;;5.33;1.60;;;;;;;7.29;67.71;101156.25;4988938;28;20216;-82
2023/02/18 00:56:11;;;;;;;3.03;1.20;;;;;;;7.30;67.40;101163.28;4985138;28;20223;-83
2023/02/18 00:58:37;;;;;;;4.17;1.07;;;;;;;7.32;67.78;101168.50;4991872;28;20200;-83
2023/02/18 01:01:05;;;;;;;4.23;1.07;;;;;;;7.32;67.93;101171.16;4985044;28;20227;-82
2023/02/18 01:03:32;;;;;;;5.07;1.10;;;;;;;7.31;67.93;101172.09;4991900;28;20214;-82
2023/02/18 01:06:00;;;;;;;2.77;0.93;;;;;;;7.29;68.52;101172.16;4989039;28;20231;-83
2023/02/18 01:08:26;;;;;;;4.57;0.90;;;;;;;7.29;68.27;101176.59;4991342;28;20208;-83
2023/02/18 01:10:56;;;;;;;3.97;0.97;;;;;;;7.26;68.52;101176.72;4982587;28;20204;-83
2023/02/18 01:13:23;;;;;;;3.43;1.10;;;;;;;7.26;68.47;101166.09;4990859;28;20579;-83
2023/02/18 01:15:50;;;;;;;4.43;1.23;;;;;;;7.25;68.67;101164.38;4986503;28;20219;-83
2023/02/18 01:18:17;;;;;;;6.17;1.20;;;;;;;7.25;68.23;101173.19;4989797;28;20223;-83
2023/02/18 01:20:44;;;;;;;5.40;1.20;;;;;;;7.24;68.97;101167.97;4992582;28;20242;-82
2023/02/18 01:23:13;;;;;;;4.70;0.80;;;;;;;7.22;68.24;101169.81;4991865;28;20210;-83
2023/02/18 01:25:40;;;;;;;5.17;1.33;;;;;;;7.23;69.53;101171.53;4993736;28;20233;-82
2023/02/18 01:28:08;;;;;;;6.60;1.20;;;;;;;7.22;68.87;101181.25;4994920;28;20215;-81
2023/02/18 01:30:34;;;;;;;4.53;0.87;;;;;;;7.22;69.15;101175.09;4993952;28;20593;-82
2023/02/18 01:33:01;;;;;;;4.17;1.20;;;;;;;7.23;69.10;101171.53;4991144;28;20211;-81
2023/02/18 01:35:27;;;;;;;6.03;0.73;;;;;;;7.22;69.80;101164.50;4994505;28;20224;-82
2023/02/18 01:37:54;;;;;;;2.70;1.07;;;;;;;7.21;69.43;101174.25;4994229;28;20208;-80
2023/02/18 01:40:24;;;;;;;6.47;1.57;;;;;;;7.21;70.13;101174.25;4995605;28;20230;-81
2023/02/18 01:42:51;;;;;;;3.83;0.80;;;;;;;7.21;70.05;101173.38;4993427;28;20214;-83
2023/02/18 01:45:59;;;;;;;3.83;1.33;;;;;;;7.22;70.30;101170.66;4998012;28;20347;-81
2023/02/18 01:48:29;;;;;;;7.33;1.67;;;;;;;7.21;70.43;101160.13;4993862;28;20638;-83
2023/02/18 01:51:01;;;;;;;7.90;1.53;;;;;;;7.22;70.24;101161.84;4992422;28;20577;-81
2023/02/18 01:53:33;;;;;;;6.33;1.37;;;;;;;7.23;71.07;101156.50;4993104;28;20211;-81
2023/02/18 01:56:04;;;;;;;3.80;1.00;;;;;;;7.24;70.45;101157.34;4991342;28;20230;-81
2023/02/18 01:58:31;;;;;;;6.77;1.33;;;;;;;7.26;70.68;101161.69;4994404;28;20222;-81
2023/02/18 02:00:58;;;;;;;5.20;1.00;;;;;;;7.29;71.01;101166.00;4999358;28;20231;-82
2023/02/18 02:03:24;;;;;;;4.23;1.00;;;;;;;7.29;71.46;101150.09;4991231;28;20700;-81
2023/02/18 02:05:51;;;;;;;5.17;0.87;;;;;;;7.30;71.54;101147.38;4993895;28;20219;-82
2023/02/18 02:08:18;;;;;;;5.57;1.20;;;;;;;7.30;71.95;101152.69;4993186;28;20200;-81
2023/02/18 02:11:02;;;;;;;6.10;1.53;;;;;;;7.31;71.81;101146.47;4998024;28;20211;-82
2023/02/18 02:13:45;;;;;;;5.67;1.30;;;;;;;7.33;72.07;101143.75;4992131;28;20216;-82
2023/02/18 02:16:21;;;;;;;6.03;1.20;;;;;;;7.35;72.38;101136.56;4990447;28;20730;-82
2023/02/18 02:18:59;;;;;;;3.33;1.00;;;;;;;7.35;72.40;101135.69;4998169;28;20223;-82
2023/02/18 02:22:00;;;;;;;3.93;1.10;;;;;;;7.35;72.41;101120.66;4998134;28;20200;-81
2023/02/18 02:25:02;;;;;;;5.37;1.30;;;;;;;7.37;73.52;101125.91;4998884;28;20227;-82
2023/02/18 02:27:47;;;;;;;5.27;1.53;;;;;;;7.37;73.52;101112.66;4999210;28;20202;-82
2023/02/18 02:30:40;;;;;;;6.53;1.90;;;;;;;7.38;74.34;101117.88;5000845;28;20208;-82
2023/02/18 02:33:29;;;;;;;7.30;1.87;;;;;;;7.39;74.92;101114.31;4995279;28;20811;-81
2023/02/18 02:36:03;;;;;;;3.73;1.80;;;;;;;7.40;74.64;101121.34;4998795;28;20750;-83
2023/02/18 02:38:36;;;;;;;8.27;2.10;;;;;;;7.39;75.12;101124.91;5002895;28;20210;-83
2023/02/18 02:41:15;;;;;;;4.70;1.80;;;;;;;7.38;76.20;101123.19;5002166;28;20216;-82
2023/02/18 02:43:52;;;;;;;6.07;1.93;;;;;;;7.41;76.57;101119.56;4994206;28;20207;-81
2023/02/18 02:46:24;;;;;;;7.57;2.10;;;;;;;7.41;76.63;101115.13;4996098;28;21076;-83
2023/02/18 02:48:59;;;;;;;9.40;2.50;;;;;;;7.40;76.43;101110.75;4996709;28;20210;-83
2023/02/18 02:51:32;;;;;;;10.53;2.83;;;;;;;7.42;76.52;101105.38;4999440;28;20214;-82
2023/02/18 02:54:11;;;;;;;11.37;4.07;;;;;;;7.43;77.59;101110.63;5002334;28;20204;-83
2023/02/18 02:56:37;;;;;;;8.83;2.70;;;;;;;7.45;77.73;101105.25;4991281;28;20208;-83
2023/02/18 02:59:07;;;;;;;10.00;4.07;;;;;;;7.45;78.24;101100.81;4992201;28;20665;-82
2023/02/18 03:01:41;;;;;;;8.40;3.10;;;;;;;7.45;78.65;101092.88;5004166;28;20241;-82
2023/02/18 03:04:29;;;;;;;9.37;3.30;;;;;;;7.48;78.04;101097.19;4992204;28;20211;-82
2023/02/18 03:07:15;;;;;;;10.07;3.90;;;;;;;7.50;78.96;101098.84;4994965;28;20641;-84
2023/02/18 03:09:57;;;;;;;12.63;4.23;;;;;;;7.51;78.57;101086.44;5003999;28;20286;-82
2023/02/18 03:12:29;;;;;;;11.57;4.33;;;;;;;7.52;79.92;101088.16;4994429;28;20211;-83
2023/02/18 03:15:03;;;;;;;7.80;4.57;;;;;;;7.54;79.95;101083.63;4995509;28;20243;-83
2023/02/18 03:17:34;;;;;;;10.63;4.50;;;;;;;7.56;80.74;101079.13;5001870;28;20576;-82
2023/02/18 03:20:09;;;;;;;11.33;4.73;;;;;;;7.56;80.64;101074.69;4994734;28;20216;-83
2023/02/18 03:22:41;;;;;;;10.93;4.87;;;;;;;7.56;80.54;101074.69;5002747;28;20202;-83
2023/02/18 03:25:09;;;;;;;12.50;5.07;;;;;;;7.58;81.96;101078.13;4998802;28;20874;-83
2023/02/18 03:27:41;;;;;;;11.47;6.10;;;;;;;7.58;81.53;101071.97;5001592;28;20645;-82
2023/02/18 03:30:13;;;;;;;15.77;6.10;;;;;;;7.59;81.60;101071.91;4994119;28;20201;-82
2023/02/18 03:32:39;;;;;;;11.80;5.93;;;;;;;7.59;82.35;101065.75;4987136;28;20214;-81
2023/02/18 03:35:15;;;;;;;14.20;6.07;;;;;;;7.60;82.40;101055.09;4993749;28;20320;-82
2023/02/18 03:37:47;;;;;;;14.80;6.43;;;;;;;7.60;83.36;101041.81;4990687;28;20203;-81
2023/02/18 03:40:17;;;;;;;13.70;6.43;;;;;;;7.62;83.51;101037.31;4999508;28;20232;-81
2023/02/18 03:42:43;;;;;;;15.80;7.50;;;;;;;7.63;83.58;101031.09;4998398;28;20267;-82
2023/02/18 03:45:10;;;;;;;10.50;6.87;;;;;;;7.63;83.84;101025.78;4998318;28;20228;-81
2023/02/18 03:47:36;;;;;;;21.10;7.10;;;;;;;7.63;83.64;101023.13;4997992;28;20203;-82
2023/02/18 03:50:03;;;;;;;14.17;6.20;;;;;;;7.62;83.76;101018.75;4995016;28;20207;-81
2023/02/18 03:52:30;;;;;;;13.13;5.70;;;;;;;7.63;84.79;101023.13;4996653;28;20208;-81
2023/02/18 03:54:58;;;;;;;13.70;5.80;;;;;;;7.64;84.45;101024.00;5004132;28;20286;-81
2023/02/18 03:57:24;;;;;;;13.87;5.57;;;;;;;7.64;84.50;101029.31;4999465;28;20672;-81
2023/02/18 03:59:51;;;;;;;10.67;5.47;;;;;;;7.63;84.49;101025.78;4992143;28;20227;-82
2023/02/18 04:02:17;;;;;;;11.13;5.30;;;;;;;7.64;84.47;101016.91;4995401;28;20588;-83
2023/02/18 04:04:43;;;;;;;12.93;6.17;;;;;;;7.65;84.90;101020.41;5001558;28;20642;-81
2023/02/18 04:07:10;;;;;;;14.10;6.20;;;;;;;7.64;85.01;101014.25;4998704;28;20583;-81
2023/02/18 04:09:36;;;;;;;14.77;6.43;;;;;;;7.66;85.40;101011.53;4991117;28;20579;-82
2023/02/18 04:12:04;;;;;;;14.40;6.47;;;;;;;7.65;85.55;101010.69;4999847;28;20215;-81
2023/02/18 04:14:31;;;;;;;11.43;6.23;;;;;;;7.66;85.12;101006.25;4997636;28;20227;-81
2023/02/18 04:16:58;;;;;;;16.80;6.90;;;;;;;7.66;85.44;101004.44;4994515;28;20207;-81
2023/02/18 04:19:24;;;;;;;13.63;6.87;;;;;;;7.68;85.67;101001.72;5001106;28;20211;-82
2023/02/18 04:21:50;;;;;;;15.77;7.20;;;;;;;7.69;85.48;101000.81;5002602;28;20234;-82
2023/02/18 04:24:17;;;;;;;15.90;7.70;;;;;;;7.71;85.99;101000.69;4992409;28;20234;-81
2023/02/18 04:26:43;;;;;;;15.50;8.10;;;;;;;7.72;85.64;101000.63;5002359;28;20203;-81
2023/02/18 04:29:11;;;;;;;21.27;10.47;;;;;;;7.74;86.48;101003.22;5001481;28;20209;-82
2023/02/18 04:31:38;;;;;;;21.63;9.70;;;;;;;7.75;87.05;101000.50;4995053;28;20215;-81
2023/02/18 04:34:04;;;;;;;25.63;10.97;;;;;;;7.77;87.34;100992.47;4996545;28;20686;-82
2023/02/18 04:36:31;;;;;;;19.87;11.17;;;;;;;7.78;87.19;100992.41;4997324;28;20218;-81
2023/02/18 04:38:58;;;;;;;24.33;12.23;;;;;;;7.79;88.17;101001.22;4997868;28;20207;-81
2023/02/18 04:41:24;;;;;;;22.30;11.07;;;;;;;7.79;88.55;100999.44;4991374;28;20233;-81
2023/02/18 04:43:51;;;;;;;19.70;10.43;;;;;;;7.79;88.91;100999.44;4983653;28;20207;-81
2023/02/18 04:46:18;;;;;;;20.53;11.07;;;;;;;7.79;89.14;100985.31;4992488;28;20227;-81
2023/02/18 04:48:45;;;;;;;19.60;11.30;;;;;;;7.79;90.17;100977.34;4992821;28;20217;-81
2023/02/18 04:51:11;;;;;;;20.53;10.37;;;;;;;7.78;89.49;100983.59;4984422;28;20204;-81
2023/02/18 04:53:38;;;;;;;21.07;11.83;;;;;;;7.78;90.34;100975.63;4993381;28;20204;-81
2023/02/18 04:56:05;;;;;;;22.13;12.03;;;;;;;7.78;91.08;100970.34;4985912;28;20258;-81
2023/02/18 04:58:31;;;;;;;21.17;11.13;;;;;;;7.77;91.50;100965.97;4997029;28;20215;-81
2023/02/18 05:00:59;;;;;;;23.97;12.00;;;;;;;7.76;91.34;100957.16;4996243;28;20253;-81
2023/02/18 05:03:27;;;;;;;24.23;11.30;;;;;;;7.77;92.20;100955.34;4992973;28;20230;-82
2023/02/18 05:05:53;;;;;;;19.23;11.13;;;;;;;7.76;92.54;100948.34;4998307;28;20234;-82
2023/02/18 05:08:20;;;;;;;23.90;12.17;;;;;;;7.76;93.22;100953.63;4999210;28;20665;-82
2023/02/18 05:10:46;;;;;;;22.87;12.23;;;;;;;7.76;93.10;100953.63;4993766;28;20215;-82
2023/02/18 05:13:13;;;;;;;23.70;12.13;;;;;;;7.75;93.41;100943.97;4993109;28;20608;-82
2023/02/18 05:15:39;;;;;;;30.50;17.13;;;;;;;7.73;93.75;100940.50;4990386;28;20580;-82
2023/02/18 05:18:06;;;;;;;27.13;13.80;;;;;;;7.73;94.03;100933.44;4992185;28;20212;-82
2023/02/18 05:20:34;;;;;;;31.90;14.47;;;;;;;7.72;94.10;100931.69;4995997;28;20223;-82
2023/02/18 05:23:01;;;;;;;28.73;14.93;;;;;;;7.72;94.38;100930.84;4997563;28;20219;-81
2023/02/18 05:25:27;;;;;;;31.10;16.27;;;;;;;7.73;94.79;100929.91;4993762;28;20220;-82
2023/02/18 05:27:54;;;;;;;34.20;16.60;;;;;;;7.74;95.26;100927.19;4996959;28;20295;-82
2023/02/18 05:30:21;;;;;;;30.03;16.90;;;;;;;7.77;95.86;100924.41;4998336;28;20206;-82
2023/02/18 05:32:47;;;;;;;33.20;16.70;;;;;;;7.78;96.10;100914.66;5000735;28;20203;-83
2023/02/18 05:35:13;;;;;;;34.70;17.33;;;;;;;7.79;96.86;100916.38;4991942;28;20224;-83
2023/02/18 05:37:41;;;;;;;31.03;17.00;;;;;;;7.80;96.67;100912.78;4996810;28;20604;-82
2023/02/18 05:40:09;;;;;;;36.90;17.20;;;;;;;7.80;98.05;100903.06;4998095;28;20597;-82
2023/02/18 05:42:35;;;;;;;36.17;17.37;;;;;;;7.81;98.04;100895.97;4996371;28;20196;-82
2023/02/18 05:45:02;;;;;;;38.00;17.90;;;;;;;7.82;98.57;100898.53;5001953;28;20238;-82
2023/02/18 05:47:28;;;;;;;32.60;17.87;;;;;;;7.84;98.43;100898.47;4993533;28;20211;-82
2023/02/18 05:49:55;;;;;;;47.60;20.07;;;;;;;7.87;99.08;100895.69;5006326;28;20209;-82
2023/02/18 05:52:22;;;;;;;35.00;17.67;;;;;;;7.89;99.66;100888.47;4991598;28;20259;-83
2023/02/18 05:54:50;;;;;;;37.27;18.47;;;;;;;7.90;100.00;100890.19;4994185;28;20219;-82
2023/02/18 05:57:16;;;;;;;36.27;18.37;;;;;;;7.90;100.00;100882.25;4986469;28;20204;-82
2023/02/18 05:59:43;;;;;;;31.13;16.77;;;;;;;7.91;100.00;100881.31;4993811;28;20203;-82
2023/02/18 06:02:09;;;;;;;37.37;16.80;;;;;;;7.93;100.00;100871.47;4991612;28;20243;-81
2023/02/18 06:04:36;;;;;;;33.37;16.90;;;;;;;7.95;100.00;100867.81;4998460;28;20314;-82
2023/02/18 06:07:02;;;;;;;32.97;16.73;;;;;;;7.96;100.00;100861.59;5005220;28;20221;-82
2023/02/18 06:09:29;;;;;;;30.40;16.20;;;;;;;7.98;100.00;100859.72;4993061;28;20208;-81
2023/02/18 06:11:56;;;;;;;25.13;15.00;;;;;;;8.01;100.00;100858.72;4993342;28;20208;-82
2023/02/18 06:14:23;;;;;;;27.83;14.80;;;;;;;8.00;100.00;100844.59;4992417;28;20227;-82
2023/02/18 06:16:49;;;;;;;28.57;15.00;;;;;;;8.01;100.00;100850.75;4995345;28;20230;-82
2023/02/18 06:19:16;;;;;;;25.50;15.20;;;;;;;8.01;100.00;100845.47;4992538;28;20223;-82
2023/02/18 06:21:42;;;;;;;28.50;14.40;;;;;;;8.02;100.00;100852.47;4996426;28;20751;-81
2023/02/18 06:24:09;;;;;;;24.67;13.23;;;;;;;8.01;100.00;100841.00;4996593;28;20246;-82
2023/02/18 06:26:35;;;;;;;29.27;14.17;;;;;;;8.02;100.00;100844.53;5001051;28;20206;-83
2023/02/18 06:29:03;;;;;;;25.07;12.37;;;;;;;8.03;100.00;100825.03;4991805;28;20556;-82
2023/02/18 06:31:30;;;;;;;23.97;13.23;;;;;;;8.02;100.00;100839.22;4993574;28;20207;-82
2023/02/18 06:33:57;;;;;;;23.40;11.97;;;;;;;8.03;100.00;100819.72;4991424;28;20848;-82
2023/02/18 06:36:23;;;;;;;20.10;12.63;;;;;;;8.05;100.00;100817.00;4997631;28;20743;-82
2023/02/18 06:38:50;;;;;;;20.97;12.20;;;;;;;8.05;100.00;100809.91;4996394;28;20204;-82
2023/02/18 06:41:17;;;;;;;20.10;12.07;;;;;;;8.06;100.00;100813.41;4992499;28;20279;-82
2023/02/18 06:43:44;;;;;;;16.33;10.10;;;;;;;8.06;100.00;100800.16;4986272;28;20697;-82
2023/02/18 06:46:12;;;;;;;17.37;11.77;;;;;;;8.06;100.00;100800.97;4989766;28;20234;-82
2023/02/18 06:48:38;;;;;;;15.53;9.40;;;;;;;8.06;100.00;100798.31;4998065;28;20240;-82
2023/02/18 06:51:05;;;;;;;18.03;10.67;;;;;;;8.08;100.00;100783.19;5000664;28;20659;-82
2023/02/18 06:53:32;;;;;;;16.73;9.67;;;;;;;8.08;100.00;100775.22;4995662;28;20806;-82
2023/02/18 06:55:58;;;;;;;17.97;10.27;;;;;;;8.10;100.00;100770.72;4992591;28;20232;-82
2023/02/18 06:58:25;;;;;;;18.37;10.23;;;;;;;8.10;100.00;100761.91;5001184;28;20219;-82
2023/02/18 07:00:51;;;;;;;17.67;10.80;;;;;;;8.11;100.00;100761.81;5000870;28;20274;-82
2023/02/18 07:03:19;;;;;;;15.27;10.40;;;;;;;8.13;100.00;100757.28;5000013;28;20218;-81
2023/02/18 07:05:46;;;;;;;16.47;10.10;;;;;;;8.13;100.00;100749.34;4999350;28;20228;-82
2023/02/18 07:08:12;;;;;;;17.33;10.13;;;;;;;8.14;100.00;100748.41;4991183;28;20207;-81
2023/02/18 07:10:39;;;;;;;18.77;9.17;;;;;;;8.15;100.00;100739.50;4998921;28;21560;-82
2023/02/18 07:13:06;;;;;;;14.77;10.07;;;;;;;8.16;100.00;100738.56;4992605;28;20222;-82
2023/02/18 07:15:32;;;;;;;13.97;8.87;;;;;;;8.17;100.00;100728.81;4994446;28;20232;-82
2023/02/18 07:17:59;;;;;;;11.73;7.73;;;;;;;8.18;100.00;100726.09;4998210;28;20207;-82
2023/02/18 07:20:27;;;;;;;12.10;7.53;;;;;;;8.20;100.00;100723.38;4987599;28;20211;-81
2023/02/18 07:22:54;;;;;;;11.93;7.50;;;;;;;8.22;100.00;100706.44;4993556;28;20207;-81
2023/02/18 07:25:21;;;;;;;15.37;9.97;;;;;;;8.25;100.00;100714.19;4992115;28;20700;-82
2023/02/18 07:27:48;;;;;;;9.40;6.13;;;;;;;8.31;100.00;100702.41;4992520;28;20207;-82
2023/02/18 07:30:15;;;;;;;12.83;6.80;;;;;;;8.35;100.00;100696.91;4991185;28;20211;-82
2023/02/18 07:32:41;;;;;;;9.37;6.17;;;;;;;8.44;100.00;100687.56;4995019;28;20196;-83
2023/02/18 07:35:08;;;;;;;11.87;6.53;;;;;;;8.53;100.00;100675.63;4994231;28;20254;-82
2023/02/18 07:37:36;;;;;;;13.13;6.63;;;;;;;8.60;100.00;100679.63;4992078;28;20214;-82
2023/02/18 07:40:03;;;;;;;11.63;6.63;;;;;;;8.69;100.00;100671.19;4985004;28;20215;-82
2023/02/18 07:42:29;;;;;;;11.47;6.50;;;;;;;8.77;100.00;100668.97;4975424;28;20635;-83
2023/02/18 07:44:56;;;;;;;9.07;5.60;;;;;;;8.86;100.00;100651.66;4976232;28;20874;-83
2023/02/18 07:47:22;;;;;;;10.50;6.40;;;;;;;8.91;100.00;100669.06;4996017;28;20211;-83
2023/02/18 07:49:49;;;;;;;11.30;5.67;;;;;;;8.96;100.00;100668.78;4995910;28;20204;-83
2023/02/18 07:52:16;;;;;;;10.20;5.77;;;;;;;8.98;100.00;100664.22;4995816;28;20210;-82
2023/02/18 07:54:44;;;;;;;7.93;4.83;;;;;;;9.03;100.00;100663.03;4996464;28;20228;-82
2023/02/18 07:57:10;;;;;;;8.17;4.43;;;;;;;9.05;100.00;100662.94;4997445;28;20216;-83
2023/02/18 07:59:37;;;;;;;6.67;3.83;;;;;;;9.11;100.00;100661.75;4996876;28;20203;-83
2023/02/18 08:02:04;;;;;;;6.47;3.50;;;;;;;9.15;100.00;100655.28;4996786;28;20239;-82
2023/02/18 08:04:30;;;;;;;6.20;3.40;;;;;;;9.19;100.00;100649.72;4997491;28;20367;-82
2023/02/18 08:06:57;;;;;;;4.30;2.67;;;;;;;9.21;100.00;100646.97;4997800;28;20207;-82
2023/02/18 08:09:23;;;;;;;5.97;3.17;;;;;;;9.23;100.00;100651.28;4997592;28;20215;-83
2023/02/18 08:11:51;;;;;;;2.90;2.00;;;;;;;9.26;100.00;100656.41;4997057;28;20215;-83
2023/02/18 08:14:18;;;;;;;4.93;2.33;;;;;;;9.27;100.00;100628.03;4996009;28;20231;-84
2023/02/18 08:16:44;;;;;;;3.00;1.63;;;;;;;9.31;100.00;100633.09;4995333;28;20214;-83
2023/02/18 08:19:11;;;;;;;2.17;1.47;;;;;;;9.36;100.00;100638.13;4978649;28;20223;-83
2023/02/18 08:21:37;;;;;;;1.80;1.27;;;;;;;9.38;100.00;100634.44;4991576;28;20721;-83
2023/02/18 08:24:04;;;;;;;1.57;0.90;;;;;;;9.39;100.00;100633.47;4976344;28;20262;-84
2023/02/18 08:26:30;;;;;;;1.37;1.00;;;;;;;9.43;100.00;100623.53;4995645;28;20211;-83
2023/02/18 08:28:58;;;;;;;1.00;0.90;;;;;;;9.46;100.00;100630.47;4996086;28;20212;-83
2023/02/18 08:31:27;;;;;;;2.60;1.10;;;;;;;9.49;100.00;100635.63;4998579;28;20207;-84
2023/02/18 08:33:55;;;;;;;1.10;0.70;;;;;;;9.50;100.00;100624.88;4990823;28;20200;-82
2023/02/18 08:36:22;;;;;;;1.70;1.13;;;;;;;9.49;100.00;100624.97;4979256;28;20228;-83
2023/02/18 08:38:49;;;;;;;0.70;0.60;;;;;;;9.50;100.00;100614.22;4977446;28;20215;-83
2023/02/18 08:41:17;;;;;;;2.07;0.63;;;;;;;9.53;100.00;100627.34;4982637;28;20234;-82
2023/02/18 08:43:44;;;;;;;1.77;0.83;;;;;;;9.56;100.00;100621.84;5000423;28;20653;-82
2023/02/18 08:46:12;;;;;;;1.10;0.77;;;;;;;9.58;100.00;100625.28;4999788;28;20254;-82
2023/02/18 08:48:38;;;;;;;0.90;0.60;;;;;;;9.57;100.00;100618.25;5000717;28;20218;-82
2023/02/18 08:51:13;;;;;;;0.50;0.50;;;;;;;9.57;100.00;100614.72;4999536;28;20215;-82
2023/02/18 08:53:40;;;;;;;0.90;0.50;;;;;;;9.59;100.00;100610.19;4990653;28;20294;-83
2023/02/18 08:56:07;;;;;;;1.43;0.60;;;;;;;9.62;100.00;100607.34;5000370;28;20223;-82
2023/02/18 08:58:36;;;;;;;0.70;0.60;;;;;;;9.62;100.00;100602.88;4999536;28;20221;-83
2023/02/18 09:01:03;;;;;;;1.23;0.63;;;;;;;9.66;100.00;100606.22;5000089;28;20204;-82
2023/02/18 09:03:31;;;;;;;0.53;0.43;;;;;;;9.68;100.00;100605.16;4999426;28;20580;-83
2023/02/18 09:05:59;;;;;;;0.50;0.50;;;;;;;9.71;100.00;100601.47;4999565;28;20238;-83
2023/02/18 09:08:26;;;;;;;0.33;0.33;;;;;;;9.73;100.00;100608.41;4999691;28;20215;-83
2023/02/18 09:10:55;;;;;;;0.60;0.50;;;;;;;9.77;100.00;100597.59;4983277;28;20208;-84
2023/02/18 09:13:24;;;;;;;0.50;0.40;;;;;;;9.77;100.00;100600.25;4994937;28;20262;-83
2023/02/18 09:15:59;;;;;;;0.40;0.40;;;;;;;9.82;100.00;100590.19;5000750;28;20587;-83
2023/02/18 09:18:25;;;;;;;0.40;0.40;;;;;;;9.86;100.00;100584.56;5000733;28;20640;-83
2023/02/18 09:20:57;;;;;;;0.57;0.50;;;;;;;9.89;100.00;100581.72;5003956;28;20212;-82
2023/02/18 09:23:24;;;;;;;0.40;0.40;;;;;;;9.92;100.00;100583.34;4992967;28;20485;-83
2023/02/18 09:25:50;;;;;;;0.30;0.30;;;;;;;9.97;100.00;100568.81;4995859;28;20235;-82
2023/02/18 09:28:17;;;;;;;0.30;0.30;;;;;;;9.99;100.00;100574.91;4991752;28;20216;-83
2023/02/18 09:30:43;;;;;;;0.50;0.50;;;;;;;10.00;100.00;100559.78;4996156;28;20199;-83
2023/02/18 09:33:10;;;;;;;0.33;0.30;;;;;;;10.00;100.00;100543.81;4998379;28;20602;-83
2023/02/18 09:35:39;;;;;;;0.37;0.30;;;;;;;10.02;100.00;100572.06;4997413;28;20224;-82
2023/02/18 09:38:07;;;;;;;0.20;0.20;;;;;;;10.09;100.00;100559.19;4997531;28;20200;-83
2023/02/18 09:40:37;;;;;;;0.30;0.30;;;;;;;10.11;100.00;100575.94;4997939;28;20208;-82
2023/02/18 09:43:04;;;;;;;0.80;0.40;;;;;;;10.17;100.00;100582.69;4988553;28;20228;-83
2023/02/18 09:45:31;;;;;;;0.30;0.30;;;;;;;10.16;100.00;100571.19;4978113;28;20232;-83
2023/02/18 09:47:59;;;;;;;0.40;0.40;;;;;;;10.17;100.00;100567.56;4993441;28;20215;-82
2023/02/18 09:50:28;;;;;;;0.87;0.70;;;;;;;10.18;100.00;100571.94;4997889;28;20208;-82
2023/02/18 09:52:58;;;;;;;1.27;1.17;;;;;;;10.15;100.00;100568.63;5001278;28;20568;-82
2023/02/18 09:55:29;;;;;;;1.67;0.80;;;;;;;10.20;100.00;100554.09;4997793;28;20225;-83
2023/02/18 09:57:59;;;;;;;1.07;0.90;;;;;;;10.20;100.00;100564.75;4996713;28;20763;-83
2023/02/18 10:00:40;;;;;;;0.80;0.70;;;;;;;10.20;100.00;100559.44;4996716;28;20662;-82
2023/02/18 10:03:13;;;;;;;0.90;0.90;;;;;;;10.21;100.00;100553.13;4995728;28;20243;-82
2023/02/18 10:05:42;;;;;;;1.10;1.00;;;;;;;10.24;100.00;100550.28;4983653;28;20236;-82
2023/02/18 10:08:19;;;;;;;1.20;1.10;;;;;;;10.24;100.00;100547.63;5000347;28;20220;-82
2023/02/18 10:10:47;;;;;;;1.20;1.10;;;;;;;10.26;100.00;100543.06;4998043;28;20200;-83
2023/02/18 10:13:18;;;;;;;1.47;1.30;;;;;;;10.30;100.00;100549.91;5000864;28;20215;-84
2023/02/18 10:15:45;;;;;;;1.60;1.30;;;;;;;10.32;100.00;100552.47;5001133;28;20248;-82
2023/02/18 10:18:24;;;;;;;1.40;1.23;;;;;;;10.30;100.00;100543.72;4998548;28;20212;-84
2023/02/18 10:20:52;;;;;;;1.60;1.50;;;;;;;10.31;100.00;100519.66;4981674;28;20204;-80
2023/02/18 10:23:20;;;;;;;2.80;1.90;;;;;;;10.33;100.00;100536.41;4985055;28;20239;-82
2023/02/18 10:25:50;;;;;;;1.60;1.30;;;;;;;10.30;100.00;100544.56;4996984;28;20619;-84
2023/02/18 10:28:21;;;;;;;1.60;1.50;;;;;;;10.31;100.00;100538.31;4995928;28;20238;-81
2023/02/18 10:30:56;;;;;;;1.90;1.70;;;;;;;10.36;100.00;100528.22;4984814;28;20195;-81
2023/02/18 10:33:32;;;;;;;1.50;1.40;;;;;;;10.38;100.00;100520.13;4979771;28;20195;-83
2023/02/18 10:36:11;;;;;;;1.50;1.33;;;;;;;10.41;100.00;100534.06;4983381;28;20227;-84
2023/02/18 10:38:47;;;;;;;1.67;1.57;;;;;;;10.41;100.00;100541.22;4995996;28;20192;-82
2023/02/18 10:41:23;;;;;;;1.43;1.30;;;;;;;10.43;100.00;100542.81;4996028;28;20817;-83
2023/02/18 10:43:58;;;;;;;2.07;1.67;;;;;;;10.47;100.00;100545.28;4997186;28;20625;-83
2023/02/18 10:46:31;;;;;;;1.40;1.30;;;;;;;10.46;100.00;100528.47;4991034;28;20235;-82
2023/02/18 10:49:09;;;;;;;1.70;1.40;;;;;;;10.46;100.00;100546.25;4994938;28;20200;-82
2023/02/18 10:51:39;;;;;;;2.30;1.57;;;;;;;10.45;100.00;100518.75;4996987;28;20548;-83
2023/02/18 10:54:07;;;;;;;2.23;1.80;;;;;;;10.45;100.00;100526.75;4997809;28;20191;-83
2023/02/18 10:56:38;;;;;;;1.90;1.70;;;;;;;10.45;100.00;100537.41;5002643;28;20204;-83
2023/02/18 10:59:14;;;;;;;2.40;2.20;;;;;;;10.44;100.00;100530.38;5013984;28;20290;-83
2023/02/18 11:01:43;;;;;;;2.20;2.00;;;;;;;10.41;100.00;100525.25;5012016;28;20220;-83
2023/02/18 11:04:15;;;;;;;2.07;1.87;;;;;;;10.37;100.00;100519.28;4988761;28;20204;-82
2023/02/18 11:06:46;;;;;;;2.50;2.30;;;;;;;10.39;100.00;100512.03;4996711;28;20270;-82
2023/02/18 11:09:27;;;;;;;3.00;2.20;;;;;;;10.37;100.00;100502.44;4996839;28;20208;-83
2023/02/18 11:12:02;;;;;;;3.03;2.53;;;;;;;10.34;100.00;100511.47;4996983;28;20203;-83
2023/02/18 11:14:41;;;;;;;3.23;2.90;;;;;;;10.37;100.00;100513.97;4996924;28;20236;-83
2023/02/18 11:17:16;;;;;;;2.53;2.33;;;;;;;10.35;100.00;100523.84;4994289;28;20681;-82
2023/02/18 11:19:42;;;;;;;3.43;2.50;;;;;;;10.36;100.00;100517.56;4996428;28;20265;-82
2023/02/18 11:22:16;;;;;;;3.67;2.73;;;;;;;10.36;100.00;100530.88;4997571;28;20227;-83
2023/02/18 11:24:47;;;;;;;2.27;2.07;;;;;;;10.38;100.00;100514.81;4994671;28;20236;-83
2023/02/18 11:27:22;;;;;;;2.70;2.30;;;;;;;10.37;100.00;100516.63;4999339;28;20233;-83
2023/02/18 11:29:52;;;;;;;2.30;2.00;;;;;;;10.37;100.00;100515.75;4990871;28;20192;-83
2023/02/18 11:32:19;;;;;;;3.67;3.37;;;;;;;10.36;100.00;100506.91;4996068;28;20251;-82